Time;durP1;ratioP1;P1;durP2;ratioP2;P2;SDS_P1;SDS_P2;PMS_P1;PMS_P2;Temp;Humidity;BMP_temperature;BMP_pressure;BME280_temperature;BME280_humidity;BME280_pressure;Samples;Min_cycle;Max_cycle;Signal;HPM_P1;HPM_P2
2024/01/23 00:00:25;;;;;;;1999.90;999.90;;;11.00;99.90;;;;;;5073196;28;20032;-78
2024/01/23 00:02:51;;;;;;;1999.90;999.90;;;11.00;99.90;;;;;;5074553;28;20016;-78
2024/01/23 00:05:17;;;;;;;1999.90;999.90;;;11.00;99.90;;;;;;5074637;28;20059;-78
2024/01/23 00:07:42;;;;;;;1999.90;999.90;;;11.00;99.90;;;;;;5074728;28;20036;-78
2024/01/23 00:10:08;;;;;;;1999.90;999.90;;;11.00;99.90;;;;;;5056528;28;20090;-78
2024/01/23 00:12:34;;;;;;;1999.90;999.90;;;11.00;99.90;;;;;;5074489;28;20112;-77
2024/01/23 00:14:59;;;;;;;1999.90;999.90;;;11.00;99.90;;;;;;5074723;28;20027;-78
2024/01/23 00:17:25;;;;;;;1999.90;999.90;;;11.00;99.90;;;;;;5074689;28;20383;-78
2024/01/23 00:19:51;;;;;;;1999.90;999.90;;;11.00;99.90;;;;;;5074462;28;20025;-78
2024/01/23 00:22:17;;;;;;;1999.90;999.90;;;11.00;99.90;;;;;;5074286;28;20036;-78
2024/01/23 00:24:42;;;;;;;1999.90;999.90;;;11.00;99.90;;;;;;5074758;28;20375;-78
2024/01/23 00:27:08;;;;;;;1999.90;999.90;;;11.00;99.90;;;;;;5074419;28;20040;-78
2024/01/23 00:29:34;;;;;;;1999.90;999.90;;;11.00;99.90;;;;;;5074688;28;20432;-78
2024/01/23 00:32:03;;;;;;;1999.90;999.90;;;11.00;99.90;;;;;;5056366;28;20432;-77
2024/01/23 00:34:29;;;;;;;1999.90;999.90;;;11.10;99.90;;;;;;5052793;28;20074;-77
2024/01/23 00:36:54;;;;;;;1999.90;999.90;;;11.10;99.90;;;;;;5054168;28;20033;-74
2024/01/23 00:39:22;;;;;;;1999.90;999.90;;;11.00;99.90;;;;;;5054391;28;20025;-77
2024/01/23 00:41:48;;;;;;;1999.90;999.90;;;11.10;99.90;;;;;;5054304;28;20036;-77
2024/01/23 00:44:14;;;;;;;1999.90;999.90;;;11.00;99.90;;;;;;5053414;28;20021;-77
2024/01/23 00:46:39;;;;;;;1999.90;999.90;;;11.00;99.90;;;;;;5053905;28;20032;-78
2024/01/23 00:49:05;;;;;;;1999.90;999.90;;;11.00;99.90;;;;;;5052577;28;20385;-77
2024/01/23 00:51:31;;;;;;;1999.90;999.90;;;10.90;99.90;;;;;;5054219;28;20470;-77
2024/01/23 00:53:56;;;;;;;1999.90;999.90;;;10.90;99.90;;;;;;5052521;28;20033;-77
2024/01/23 00:56:22;;;;;;;1999.90;999.90;;;10.90;99.90;;;;;;5052441;28;20033;-77
2024/01/23 00:58:48;;;;;;;1999.90;999.90;;;10.90;99.90;;;;;;5053759;28;20105;-77
2024/01/23 01:01:13;;;;;;;1999.90;999.90;;;10.90;99.90;;;;;;5068619;28;20494;-77
2024/01/23 01:03:39;;;;;;;1999.90;999.90;;;10.90;99.90;;;;;;5073522;28;20025;-78
2024/01/23 01:06:05;;;;;;;1999.90;999.90;;;10.90;99.90;;;;;;5073144;28;20044;-77
2024/01/23 01:08:30;;;;;;;1999.90;999.90;;;10.90;99.90;;;;;;5073368;28;20035;-77
2024/01/23 01:10:56;;;;;;;1999.90;999.90;;;10.90;99.90;;;;;;5073733;28;20027;-78
2024/01/23 01:13:22;;;;;;;1999.90;999.90;;;10.90;99.90;;;;;;5073462;28;20514;-77
2024/01/23 01:15:48;;;;;;;1999.90;999.90;;;10.90;99.90;;;;;;5073553;28;20028;-77
2024/01/23 01:18:13;;;;;;;1999.90;999.90;;;10.90;99.90;;;;;;5073398;28;20020;-78
2024/01/23 01:20:39;;;;;;;1999.90;999.90;;;10.80;99.90;;;;;;5073225;28;20050;-78
2024/01/23 01:23:04;;;;;;;1999.90;999.90;;;10.80;99.90;;;;;;5072507;28;20032;-77
2024/01/23 01:25:30;;;;;;;1999.90;999.90;;;10.70;99.90;;;;;;5073659;28;20024;-78
2024/01/23 01:27:56;;;;;;;1999.90;999.90;;;10.60;99.90;;;;;;5073063;28;20108;-77
2024/01/23 01:30:26;;;;;;;1999.90;999.90;;;10.60;99.90;;;;;;5072341;28;20020;-77
2024/01/23 01:32:52;;;;;;;1999.90;999.90;;;10.50;99.90;;;;;;5055174;28;20024;-77
2024/01/23 01:35:18;;;;;;;1999.90;999.90;;;10.50;99.90;;;;;;5073129;28;20394;-77
2024/01/23 01:37:43;;;;;;;1999.90;999.90;;;10.40;99.90;;;;;;5072830;28;20040;-77
2024/01/23 01:40:10;;;;;;;1999.90;999.90;;;10.40;99.90;;;;;;5073310;28;20031;-77
2024/01/23 01:42:36;;;;;;;1999.90;999.90;;;10.30;99.90;;;;;;5072955;28;20020;-77
2024/01/23 01:45:03;;;;;;;1999.90;999.90;;;10.30;99.90;;;;;;5073086;28;20558;-77
2024/01/23 01:47:29;;;;;;;1999.90;999.90;;;10.30;99.90;;;;;;5073043;28;20052;-77
2024/01/23 01:49:55;;;;;;;1999.90;999.90;;;10.30;99.90;;;;;;5072682;28;20036;-77
2024/01/23 01:52:22;;;;;;;1999.90;999.90;;;10.30;99.90;;;;;;5072881;28;20024;-77
2024/01/23 01:54:48;;;;;;;1999.90;999.90;;;10.30;99.90;;;;;;5072326;28;20024;-78
2024/01/23 01:57:15;;;;;;;1999.90;999.90;;;10.20;99.90;;;;;;5072873;28;20398;-78
2024/01/23 01:59:40;;;;;;;1999.90;999.90;;;10.30;99.90;;;;;;5072644;28;20096;-78
2024/01/23 02:02:07;;;;;;;1999.90;999.90;;;10.30;99.90;;;;;;5072431;28;20104;-77
2024/01/23 02:04:33;;;;;;;1999.90;999.90;;;10.30;99.90;;;;;;5072267;28;20526;-74
2024/01/23 02:06:58;;;;;;;1999.90;999.90;;;10.40;99.90;;;;;;5072914;28;20155;-77
2024/01/23 02:09:24;;;;;;;1999.90;999.90;;;10.40;99.90;;;;;;5072935;28;20032;-78
2024/01/23 02:12:00;;;;;;;1999.90;999.90;;;10.40;99.90;;;;;;5072661;28;20056;-75
2024/01/23 02:14:29;;;;;;;1999.90;999.90;;;10.50;99.90;;;;;;5072620;28;20070;-78
2024/01/23 02:16:54;;;;;;;1999.90;999.90;;;10.40;99.90;;;;;;5072491;28;20040;-77
2024/01/23 02:19:20;;;;;;;1999.90;999.90;;;10.40;99.90;;;;;;5054577;28;20020;-74
2024/01/23 02:21:46;;;;;;;1999.90;999.90;;;10.50;99.90;;;;;;5072368;28;20027;-78
2024/01/23 02:24:11;;;;;;;1999.90;999.90;;;10.40;99.90;;;;;;5054499;28;20106;-77
2024/01/23 02:26:37;;;;;;;1999.90;999.90;;;10.50;99.90;;;;;;5072564;28;20028;-74
2024/01/23 02:29:03;;;;;;;1999.90;999.90;;;10.40;99.90;;;;;;5072511;28;20399;-77
2024/01/23 02:31:28;;;;;;;1999.90;999.90;;;10.40;99.90;;;;;;5072623;28;20497;-77
2024/01/23 02:33:54;;;;;;;1999.90;999.90;;;10.40;99.90;;;;;;5072084;28;20050;-77
2024/01/23 02:36:19;;;;;;;1999.90;999.90;;;10.30;99.90;;;;;;5072266;28;20028;-77
2024/01/23 02:38:45;;;;;;;1999.90;999.90;;;10.30;99.90;;;;;;5072277;28;20021;-77
2024/01/23 02:41:11;;;;;;;1999.90;999.90;;;10.30;99.90;;;;;;5072237;28;20028;-77
2024/01/23 02:43:37;;;;;;;1999.90;999.90;;;10.30;99.90;;;;;;5071059;28;20021;-78
2024/01/23 02:46:06;;;;;;;1999.90;999.90;;;10.30;99.90;;;;;;5072217;28;20044;-77
2024/01/23 02:48:31;;;;;;;1999.90;999.90;;;10.30;99.90;;;;;;5072169;28;20082;-74
2024/01/23 02:50:57;;;;;;;1999.90;999.90;;;10.30;99.90;;;;;;5072372;28;20487;-77
2024/01/23 02:53:22;;;;;;;1999.90;999.90;;;10.40;99.90;;;;;;5072229;28;20040;-77
2024/01/23 02:55:48;;;;;;;1999.90;999.90;;;10.40;99.90;;;;;;5053939;28;20039;-77
2024/01/23 02:58:15;;;;;;;1999.90;999.90;;;10.40;99.90;;;;;;5072403;28;20110;-77
2024/01/23 03:00:42;;;;;;;1999.90;999.90;;;10.50;99.90;;;;;;5072147;28;20476;-77
2024/01/23 03:03:08;;;;;;;1999.90;999.90;;;10.50;99.90;;;;;;5071917;28;20031;-77
2024/01/23 03:05:34;;;;;;;1999.90;999.90;;;10.50;99.90;;;;;;5071957;28;20090;-77
2024/01/23 03:08:00;;;;;;;1999.90;999.90;;;10.60;99.90;;;;;;5074623;28;20032;-74
2024/01/23 03:10:25;;;;;;;1999.90;999.90;;;10.60;99.90;;;;;;5075791;28;20048;-77
2024/01/23 03:12:52;;;;;;;1999.90;999.90;;;10.70;99.90;;;;;;5057827;28;20091;-77
2024/01/23 03:15:18;;;;;;;1999.90;999.90;;;10.70;99.90;;;;;;5075019;28;20021;-77
2024/01/23 03:17:44;;;;;;;1999.90;999.90;;;10.80;99.90;;;;;;5075437;28;20040;-77
2024/01/23 03:20:10;;;;;;;1999.90;999.90;;;10.80;99.90;;;;;;5075596;28;20027;-77
2024/01/23 03:22:36;;;;;;;1999.90;999.90;;;10.80;99.90;;;;;;5075628;28;20024;-77
2024/01/23 03:25:02;;;;;;;1999.90;999.90;;;10.90;99.90;;;;;;5075996;28;20020;-77
2024/01/23 03:27:28;;;;;;;1999.90;999.90;;;10.90;99.90;;;;;;5075640;28;20037;-77
2024/01/23 03:29:53;;;;;;;1999.90;999.90;;;10.90;99.90;;;;;;5075551;28;20112;-77
2024/01/23 03:32:19;;;;;;;1999.90;999.90;;;10.90;99.90;;;;;;5057333;28;20021;-77
2024/01/23 03:34:45;;;;;;;1999.90;999.90;;;10.90;99.90;;;;;;5053737;28;20511;-77
2024/01/23 03:37:10;;;;;;;1999.90;999.90;;;11.10;99.90;;;;;;5055376;28;20483;-77
2024/01/23 03:39:36;;;;;;;1999.90;999.90;;;11.10;99.90;;;;;;5055530;28;20063;-77
2024/01/23 03:42:03;;;;;;;1999.90;999.90;;;11.10;99.90;;;;;;5054788;28;20025;-77
2024/01/23 03:44:29;;;;;;;1999.90;999.90;;;11.10;99.90;;;;;;5055120;28;20017;-78
2024/01/23 03:46:55;;;;;;;1999.90;999.90;;;11.20;99.90;;;;;;5055255;28;20044;-77
2024/01/23 03:49:24;;;;;;;1999.90;999.90;;;11.20;99.90;;;;;;5055230;28;20029;-77
2024/01/23 03:51:51;;;;;;;1999.90;999.90;;;11.10;99.90;;;;;;5053624;28;20021;-77
2024/01/23 03:54:17;;;;;;;1999.90;999.90;;;11.10;99.90;;;;;;5055036;28;20083;-74
2024/01/23 03:56:42;;;;;;;1999.90;999.90;;;11.10;99.90;;;;;;5054426;28;20025;-77
2024/01/23 03:59:08;;;;;;;1999.90;999.90;;;11.10;99.90;;;;;;5054623;28;20021;-77
2024/01/23 04:01:34;;;;;;;1999.90;999.90;;;11.10;99.90;;;;;;5073468;28;20022;-77
2024/01/23 04:04:00;;;;;;;1999.90;999.90;;;11.10;99.90;;;;;;5056677;28;20035;-77
2024/01/23 04:06:26;;;;;;;1999.90;999.90;;;11.10;99.90;;;;;;5074394;28;20052;-77
2024/01/23 04:08:53;;;;;;;1999.90;999.90;;;11.20;99.90;;;;;;5074648;28;20056;-77
2024/01/23 04:11:18;;;;;;;1999.90;999.90;;;11.10;99.90;;;;;;5074818;28;20025;-77
2024/01/23 04:13:44;;;;;;;1999.90;999.90;;;11.20;99.90;;;;;;5074649;28;20032;-77
2024/01/23 04:16:10;;;;;;;1999.90;999.90;;;11.20;99.90;;;;;;5074725;28;20438;-75
2024/01/23 04:18:36;;;;;;;1999.90;999.90;;;11.20;99.90;;;;;;5074110;28;20043;-77
2024/01/23 04:21:01;;;;;;;1999.90;999.90;;;11.30;99.90;;;;;;5074494;28;20103;-77
2024/01/23 04:23:28;;;;;;;1999.90;999.90;;;11.30;99.90;;;;;;5074310;28;20031;-74
2024/01/23 04:25:53;;;;;;;1999.90;999.90;;;11.30;99.90;;;;;;5074573;28;20048;-77
2024/01/23 04:28:20;;;;;;;1999.90;999.90;;;11.30;99.90;;;;;;5074315;28;20059;-77
2024/01/23 04:30:46;;;;;;;1999.90;999.90;;;11.30;99.90;;;;;;5074515;28;20032;-77
2024/01/23 04:33:12;;;;;;;1999.90;999.90;;;11.20;99.90;;;;;;5056104;28;20081;-77
2024/01/23 04:35:37;;;;;;;1999.90;999.90;;;11.20;99.90;;;;;;5074162;28;20025;-74
2024/01/23 04:38:03;;;;;;;1999.90;999.90;;;11.20;99.90;;;;;;5074490;28;20159;-77
2024/01/23 04:40:29;;;;;;;1999.90;999.90;;;11.20;99.90;;;;;;5056023;28;20495;-77
2024/01/23 04:42:54;;;;;;;1999.90;999.90;;;11.20;99.90;;;;;;5074292;28;20032;-77
2024/01/23 04:45:20;;;;;;;1999.90;999.90;;;11.10;99.90;;;;;;5073888;28;20400;-77
2024/01/23 04:47:46;;;;;;;1999.90;999.90;;;11.10;99.90;;;;;;5074236;28;20025;-77
2024/01/23 04:50:11;;;;;;;1999.90;999.90;;;11.10;99.90;;;;;;5073960;28;20025;-77
2024/01/23 04:52:37;;;;;;;1999.90;999.90;;;11.10;99.90;;;;;;5073895;28;20552;-77
2024/01/23 04:55:04;;;;;;;1999.90;999.90;;;11.10;99.90;;;;;;5074049;28;20024;-77
2024/01/23 04:57:34;;;;;;;1999.90;999.90;;;11.10;99.90;;;;;;5073762;28;20070;-77
2024/01/23 05:00:00;;;;;;;1999.90;999.90;;;11.10;99.90;;;;;;5073574;28;20031;-77
2024/01/23 05:02:26;;;;;;;1999.90;999.90;;;11.10;99.90;;;;;;5073620;28;20025;-77
2024/01/23 05:04:52;;;;;;;1999.90;999.90;;;11.00;99.90;;;;;;5073697;28;20127;-77
2024/01/23 05:07:18;;;;;;;1999.90;999.90;;;11.00;99.90;;;;;;5073605;28;20099;-74
2024/01/23 05:09:43;;;;;;;1999.90;999.90;;;11.00;99.90;;;;;;5073305;28;20071;-77
2024/01/23 05:12:09;;;;;;;1999.90;999.90;;;11.00;99.90;;;;;;5073555;28;20029;-77
2024/01/23 05:14:36;;;;;;;1999.90;999.90;;;11.00;99.90;;;;;;5073682;28;20025;-74
2024/01/23 05:17:01;;;;;;;1999.90;999.90;;;11.00;99.90;;;;;;5073534;28;20364;-77
2024/01/23 05:19:28;;;;;;;1999.90;999.90;;;10.90;99.90;;;;;;5073313;28;20081;-74
2024/01/23 05:21:54;;;;;;;1999.90;999.90;;;10.90;99.90;;;;;;5073148;28;20025;-77
2024/01/23 05:24:19;;;;;;;1999.90;999.90;;;10.90;99.90;;;;;;5073554;28;20353;-77
2024/01/23 05:26:45;;;;;;;1999.90;999.90;;;10.90;99.90;;;;;;5073200;28;20024;-77
2024/01/23 05:29:10;;;;;;;1999.90;999.90;;;10.90;99.90;;;;;;5072016;28;20025;-77
2024/01/23 05:31:36;;;;;;;1999.90;999.90;;;10.90;99.90;;;;;;5072739;28;20025;-77
2024/01/23 05:34:02;;;;;;;1999.90;999.90;;;10.90;99.90;;;;;;5072868;28;20111;-77
2024/01/23 05:36:27;;;;;;;1999.90;999.90;;;10.90;99.90;;;;;;5072847;28;20028;-77
2024/01/23 05:38:53;;;;;;;1999.90;999.90;;;10.90;99.90;;;;;;5073456;28;20062;-77
2024/01/23 05:41:19;;;;;;;1999.90;999.90;;;10.90;99.90;;;;;;5073128;28;20036;-74
2024/01/23 05:43:44;;;;;;;1999.90;999.90;;;10.90;99.90;;;;;;5073336;28;20024;-77
2024/01/23 05:46:10;;;;;;;1999.90;999.90;;;10.90;99.90;;;;;;5072840;28;20028;-77
2024/01/23 05:48:35;;;;;;;1999.90;999.90;;;10.90;99.90;;;;;;5072933;28;20029;-77
2024/01/23 05:51:01;;;;;;;1999.90;999.90;;;10.90;99.90;;;;;;5073088;28;20035;-77
2024/01/23 05:53:27;;;;;;;1999.90;999.90;;;10.80;99.90;;;;;;5072693;28;20138;-77
2024/01/23 05:55:53;;;;;;;1999.90;999.90;;;10.90;99.90;;;;;;5072679;28;20064;-77
2024/01/23 05:58:18;;;;;;;1999.90;999.90;;;10.90;99.90;;;;;;5071238;28;20074;-77
2024/01/23 06:00:44;;;;;;;1999.90;999.90;;;10.90;99.90;;;;;;5072142;28;20056;-77
2024/01/23 06:03:10;;;;;;;1999.90;999.90;;;10.90;99.90;;;;;;5072416;28;20025;-77
2024/01/23 06:05:35;;;;;;;1999.90;999.90;;;10.90;99.90;;;;;;5072289;28;20415;-77
2024/01/23 06:08:01;;;;;;;1999.90;999.90;;;10.90;99.90;;;;;;5075651;28;20032;-75
2024/01/23 06:10:27;;;;;;;1999.90;999.90;;;10.90;99.90;;;;;;5091535;28;20024;-74
2024/01/23 06:12:52;;;;;;;1999.90;999.90;;;10.90;99.90;;;;;;5072635;28;20067;-77
2024/01/23 06:15:18;;;;;;;1999.90;999.90;;;10.80;99.90;;;;;;5072741;28;20044;-77
2024/01/23 06:17:44;;;;;;;1999.90;999.90;;;10.80;99.90;;;;;;5072457;28;20041;-74
2024/01/23 06:20:12;;;;;;;1999.90;999.90;;;10.80;99.90;;;;;;5082770;28;20032;-77
2024/01/23 06:22:38;;;;;;;1999.90;999.90;;;10.80;99.90;;;;;;5080825;28;20020;-77
2024/01/23 06:25:07;;;;;;;1999.90;999.90;;;10.80;99.90;;;;;;5086934;28;20028;-77
2024/01/23 06:27:32;;;;;;;1999.90;999.90;;;10.80;99.90;;;;;;5081318;28;20107;-77
2024/01/23 06:29:58;;;;;;;1999.90;999.90;;;10.80;99.90;;;;;;5075453;28;20439;-77
2024/01/23 06:32:24;;;;;;;1999.90;999.90;;;10.80;99.90;;;;;;5072509;28;20040;-74
2024/01/23 06:34:51;;;;;;;1999.90;999.90;;;10.80;99.90;;;;;;5077619;28;20039;-77
2024/01/23 06:37:18;;;;;;;1999.90;999.90;;;10.70;99.90;;;;;;5080821;28;20441;-74
2024/01/23 06:39:43;;;;;;;1999.90;999.90;;;10.70;99.90;;;;;;5075795;28;20045;-77
2024/01/23 06:42:09;;;;;;;1999.90;999.90;;;10.60;99.90;;;;;;5074985;28;20139;-74
2024/01/23 06:44:35;;;;;;;1999.90;999.90;;;10.60;99.90;;;;;;5081206;28;20036;-77
2024/01/23 06:47:01;;;;;;;1999.90;999.90;;;10.60;99.90;;;;;;5075845;28;20029;-74
2024/01/23 06:49:26;;;;;;;1999.90;999.90;;;10.60;99.90;;;;;;5074871;28;20039;-77
2024/01/23 06:51:52;;;;;;;1999.90;999.90;;;10.60;99.90;;;;;;5075986;28;20033;-76
2024/01/23 06:54:18;;;;;;;1999.90;999.90;;;10.50;99.90;;;;;;5076028;28;20036;-77
2024/01/23 06:56:45;;;;;;;1999.90;999.90;;;10.50;99.90;;;;;;5076598;28;20032;-74
2024/01/23 06:59:12;;;;;;;1999.90;999.90;;;10.30;99.90;;;;;;5083536;28;20111;-74
2024/01/23 07:01:41;;;;;;;1999.90;999.90;;;10.20;99.90;;;;;;5073310;28;20013;-77
2024/01/23 07:04:07;;;;;;;1999.90;999.90;;;10.20;99.90;;;;;;5082442;28;20024;-77
2024/01/23 07:06:33;;;;;;;1999.90;999.90;;;10.20;99.90;;;;;;5076254;28;20668;-77
2024/01/23 07:08:58;;;;;;;1999.90;999.90;;;10.20;99.90;;;;;;5081921;28;20032;-73
2024/01/23 07:11:25;;;;;;;1999.90;999.90;;;10.20;99.90;;;;;;5075242;28;20033;-78
2024/01/23 07:13:51;;;;;;;1999.90;999.90;;;10.20;99.90;;;;;;5085146;28;20033;-74
2024/01/23 07:16:17;;;;;;;1999.90;999.90;;;10.20;99.90;;;;;;5075237;28;20537;-77
2024/01/23 07:18:42;;;;;;;1999.90;999.90;;;10.20;99.90;;;;;;5077666;28;20103;-77
2024/01/23 07:21:09;;;;;;;1999.90;999.90;;;10.10;99.90;;;;;;5084894;28;20426;-74
2024/01/23 07:23:36;;;;;;;1999.90;999.90;;;10.10;99.90;;;;;;5076150;28;20054;-74
2024/01/23 07:26:01;;;;;;;1999.90;999.90;;;10.10;99.90;;;;;;5077882;28;20700;-74
2024/01/23 07:28:27;;;;;;;1999.90;999.90;;;10.00;99.90;;;;;;5080489;28;20107;-74
2024/01/23 07:30:53;;;;;;;1999.90;999.90;;;10.00;99.90;;;;;;5074181;28;20033;-77
2024/01/23 07:33:18;;;;;;;1999.90;999.90;;;10.00;99.90;;;;;;5074928;28;20024;-74
2024/01/23 07:35:44;;;;;;;1999.90;999.90;;;10.00;99.90;;;;;;5075571;28;20368;-74
2024/01/23 07:38:11;;;;;;;1999.90;999.90;;;10.00;99.90;;;;;;5057221;28;20597;-74
2024/01/23 07:40:41;;;;;;;1999.90;999.90;;;10.10;99.90;;;;;;5075326;28;20017;-77
2024/01/23 07:43:07;;;;;;;1999.90;999.90;;;10.00;99.90;;;;;;5072766;28;20035;-77
2024/01/23 07:45:32;;;;;;;1999.90;999.90;;;10.00;99.90;;;;;;5073960;28;20387;-76
2024/01/23 07:47:58;;;;;;;1999.90;999.90;;;10.00;99.90;;;;;;5074762;28;20039;-76
2024/01/23 07:50:24;;;;;;;1999.90;999.90;;;10.00;99.90;;;;;;5074918;28;20029;-74
2024/01/23 07:52:50;;;;;;;1999.90;999.90;;;10.00;99.90;;;;;;5073470;28;20029;-74
2024/01/23 07:55:16;;;;;;;1999.90;999.90;;;10.00;99.90;;;;;;5074937;28;20025;-77
2024/01/23 07:57:41;;;;;;;1999.90;999.90;;;10.00;99.90;;;;;;5071208;28;20480;-77
2024/01/23 08:00:07;;;;;;;1999.90;999.90;;;10.10;99.90;;;;;;5071282;28;20029;-74
2024/01/23 08:02:33;;;;;;;1999.90;999.90;;;10.10;99.90;;;;;;5077234;28;20039;-74
2024/01/23 08:05:00;;;;;;;1999.90;999.90;;;10.10;99.90;;;;;;5072290;28;20053;-74
2024/01/23 08:07:25;;;;;;;1999.90;999.90;;;10.10;99.90;;;;;;5052579;28;20397;-74
2024/01/23 08:09:51;;;;;;;1999.90;999.90;;;10.20;99.90;;;;;;5073868;28;20032;-77
2024/01/23 08:12:17;;;;;;;1999.90;999.90;;;10.20;99.90;;;;;;5074061;28;20032;-74
2024/01/23 08:14:44;;;;;;;1999.90;999.90;;;10.30;99.90;;;;;;5073975;28;20103;-74
2024/01/23 08:17:11;;;;;;;1999.90;999.90;;;10.30;99.90;;;;;;5064002;28;20035;-74
2024/01/23 08:19:39;;;;;;;1999.90;999.90;;;10.40;99.90;;;;;;5093645;28;20021;-74
2024/01/23 08:22:05;;;;;;;1999.90;999.90;;;10.60;99.90;;;;;;5091874;28;20027;-77
2024/01/23 08:24:30;;;;;;;1999.90;999.90;;;10.70;99.90;;;;;;5093959;28;20387;-77
2024/01/23 08:26:56;;;;;;;1999.90;999.90;;;10.80;99.90;;;;;;5087444;28;20043;-75
2024/01/23 08:29:22;;;;;;;1999.90;999.90;;;10.80;99.90;;;;;;5073681;28;20039;-77
2024/01/23 08:31:47;;;;;;;1999.90;999.90;;;10.80;99.90;;;;;;5073739;28;20037;-74
2024/01/23 08:34:13;;;;;;;1999.90;999.90;;;10.90;99.90;;;;;;5073326;28;20032;-77
2024/01/23 08:36:39;;;;;;;1999.90;999.90;;;11.00;99.90;;;;;;5074088;28;20029;-77
2024/01/23 08:39:05;;;;;;;1999.90;999.90;;;11.10;99.90;;;;;;5073073;28;20502;-75
2024/01/23 08:41:30;;;;;;;1999.90;999.90;;;11.30;99.90;;;;;;5073831;28;20081;-74
2024/01/23 08:43:56;;;;;;;1999.90;999.90;;;11.30;99.90;;;;;;5054929;28;20480;-74
2024/01/23 08:46:22;;;;;;;1999.90;999.90;;;11.40;99.90;;;;;;5073556;28;20029;-77
2024/01/23 08:48:49;;;;;;;1999.90;999.90;;;11.50;99.90;;;;;;5073122;28;20111;-77
2024/01/23 08:51:14;;;;;;;1999.90;999.90;;;11.50;99.90;;;;;;5073609;28;20016;-77
2024/01/23 08:53:40;;;;;;;1999.90;999.90;;;11.60;99.90;;;;;;5091495;28;20510;-77
2024/01/23 08:56:06;;;;;;;1999.90;999.90;;;11.70;99.90;;;;;;5074767;28;20028;-74
2024/01/23 08:58:32;;;;;;;1999.90;999.90;;;11.70;99.90;;;;;;5073595;28;20040;-74
2024/01/23 09:00:58;;;;;;;1999.90;999.90;;;11.80;99.90;;;;;;5073118;28;20020;-77
2024/01/23 09:03:23;;;;;;;1999.90;999.90;;;11.90;99.90;;;;;;5072280;28;20032;-77
2024/01/23 09:05:50;;;;;;;1999.90;999.90;;;12.00;99.90;;;;;;5072526;28;20032;-73
2024/01/23 09:08:16;;;;;;;1999.90;999.90;;;12.10;99.90;;;;;;5072599;28;20043;-74
2024/01/23 09:10:41;;;;;;;1999.90;999.90;;;12.20;99.90;;;;;;5073113;28;20020;-74
2024/01/23 09:13:07;;;;;;;1999.90;999.90;;;12.20;99.90;;;;;;5073073;28;20479;-74
2024/01/23 09:15:33;;;;;;;1999.90;999.90;;;12.20;99.90;;;;;;5073013;28;20032;-77
2024/01/23 09:17:59;;;;;;;1999.90;999.90;;;12.20;99.90;;;;;;5072853;28;20036;-74
2024/01/23 09:20:25;;;;;;;1999.90;999.90;;;12.30;99.90;;;;;;5072643;28;20025;-74
2024/01/23 09:22:51;;;;;;;1999.90;999.90;;;12.40;99.90;;;;;;5072540;28;20127;-77
2024/01/23 09:25:20;;;;;;;1999.90;999.90;;;12.50;99.90;;;;;;5073314;28;20416;-74
2024/01/23 09:27:46;;;;;;;1999.90;999.90;;;12.50;99.90;;;;;;5082181;28;20019;-77
2024/01/23 09:30:12;;;;;;;1999.90;999.90;;;12.40;99.90;;;;;;5091763;28;20039;-74
2024/01/23 09:32:38;;;;;;;1999.90;999.90;;;12.50;99.90;;;;;;5082974;28;20029;-77
2024/01/23 09:35:06;;;;;;;1999.90;999.90;;;12.50;99.90;;;;;;5072461;28;20040;-74
2024/01/23 09:37:32;;;;;;;1999.90;999.90;;;12.50;99.90;;;;;;5072000;28;20493;-74
2024/01/23 09:39:58;;;;;;;1999.90;999.90;;;12.40;99.90;;;;;;5054032;28;20485;-76
2024/01/23 09:42:24;;;;;;;1999.90;999.90;;;12.40;99.90;;;;;;5054702;28;20035;-77
2024/01/23 09:44:54;;;;;;;1999.90;999.90;;;12.50;99.90;;;;;;5072728;28;20032;-74
2024/01/23 09:47:20;;;;;;;1999.90;999.90;;;12.50;99.90;;;;;;5072243;28;20020;-74
2024/01/23 09:49:46;;;;;;;1999.90;999.90;;;12.70;99.90;;;;;;5072012;28;20024;-74
2024/01/23 09:52:13;;;;;;;1999.90;999.90;;;12.80;99.90;;;;;;5057750;28;20035;-76
2024/01/23 09:54:39;;;;;;;1999.90;999.90;;;12.90;99.90;;;;;;5073981;28;20029;-74
2024/01/23 09:57:06;;;;;;;1999.90;999.90;;;13.00;99.90;;;;;;5072378;28;20025;-76
2024/01/23 09:59:32;;;;;;;1999.90;999.90;;;13.00;99.90;;;;;;5073932;28;20138;-74
2024/01/23 10:01:58;;;;;;;1999.90;999.90;;;13.00;99.90;;;;;;5067786;28;20111;-75
2024/01/23 10:04:25;;;;;;;1999.90;999.90;;;13.00;99.90;;;;;;5071912;28;21710;-74
2024/01/23 10:06:50;;;;;;;1999.90;999.90;;;13.00;99.90;;;;;;5072166;28;20024;-77
2024/01/23 10:09:17;;;;;;;1999.90;999.90;;;13.00;99.90;;;;;;5091577;28;20510;-76
2024/01/23 10:11:43;;;;;;;1999.90;999.90;;;12.90;99.90;;;;;;5091356;28;20028;-74
2024/01/23 10:14:09;;;;;;;1999.90;999.90;;;13.00;99.90;;;;;;5072945;28;20038;-74
2024/01/23 10:16:39;;;;;;;1999.90;999.90;;;13.00;99.90;;;;;;5066505;28;20074;-73
2024/01/23 10:19:09;;;;;;;1999.90;999.90;;;13.00;99.90;;;;;;5090283;28;20375;-76
2024/01/23 10:21:35;;;;;;;1999.90;999.90;;;13.00;99.90;;;;;;5091769;28;20028;-76
2024/01/23 10:24:01;;;;;;;1999.90;999.90;;;13.00;99.90;;;;;;5091079;28;20038;-74
2024/01/23 10:26:26;;;;;;;1999.90;999.90;;;13.00;99.90;;;;;;5089824;28;20114;-74
2024/01/23 10:28:52;;;;;;;1999.90;999.90;;;13.10;99.90;;;;;;5081565;28;20406;-74
2024/01/23 10:31:17;;;;;;;1999.90;999.90;;;13.20;99.90;;;;;;5091437;28;20032;-74
2024/01/23 10:33:43;;;;;;;1999.90;999.90;;;13.20;99.90;;;;;;5054946;28;20514;-74
2024/01/23 10:36:09;;;;;;;1999.90;999.90;;;13.20;99.90;;;;;;5071859;28;20483;-74
2024/01/23 10:38:36;;;;;;;1999.90;999.90;;;13.30;99.90;;;;;;5071441;28;20097;-76
2024/01/23 10:41:05;;;;;;;1999.90;999.90;;;13.40;99.90;;;;;;5071868;28;20021;-74
2024/01/23 10:43:31;;;;;;;1999.90;999.90;;;13.40;99.90;;;;;;5071225;28;20029;-74
2024/01/23 10:46:04;;;;;;;1999.90;999.90;;;13.60;99.90;;;;;;5072069;28;20117;-76
2024/01/23 10:48:30;;;;;;;1999.90;999.90;;;13.60;99.90;;;;;;5068853;28;20028;-74
2024/01/23 10:51:18;;;;;;;1999.90;999.90;;;13.70;99.90;;;;;;5071668;28;20031;-76
2024/01/23 10:53:57;;;;;;;1999.90;999.90;;;13.60;99.90;;;;;;5084162;28;20024;-74
2024/01/23 10:56:24;;;;;;;1999.90;999.90;;;13.70;99.90;;;;;;5091342;28;20071;-75
2024/01/23 10:59:00;;;;;;;1999.90;999.90;;;13.60;99.90;;;;;;5071571;28;20025;-76
2024/01/23 11:01:32;;;;;;;1999.90;999.90;;;13.70;99.90;;;;;;5069773;28;20031;-74
2024/01/23 11:04:00;;;;;;;1999.90;999.90;;;13.80;99.90;;;;;;5071124;28;20032;-76
2024/01/23 11:06:29;;;;;;;1999.90;999.90;;;13.70;99.90;;;;;;5071084;28;20047;-76
2024/01/23 11:09:10;;;;;;;1999.90;999.90;;;13.60;99.90;;;;;;5071241;28;20499;-76
2024/01/23 11:12:10;;;;;;;1999.90;999.90;;;13.70;99.90;;;;;;5071708;28;20421;-76
2024/01/23 11:14:59;;;;;;;1999.90;999.90;;;13.90;99.90;;;;;;5070934;28;20043;-76
2024/01/23 11:17:31;;;;;;;1999.90;999.90;;;13.90;99.90;;;;;;5070669;28;20445;-76
2024/01/23 11:20:20;;;;;;;1999.90;999.90;;;13.80;99.90;;;;;;5071892;28;20028;-77
2024/01/23 11:22:46;;;;;;;1999.90;999.90;;;13.70;99.90;;;;;;5060488;28;20036;-76
2024/01/23 11:25:16;;;;;;;1999.90;999.90;;;13.80;99.90;;;;;;5053543;28;20021;-74
2024/01/23 11:27:47;;;;;;;1999.90;999.90;;;13.90;99.90;;;;;;5081179;28;20060;-74
2024/01/23 11:30:13;;;;;;;1999.90;999.90;;;13.90;99.90;;;;;;5090175;28;20028;-74
2024/01/23 11:32:39;;;;;;;1999.90;999.90;;;13.90;99.90;;;;;;5074098;28;20024;-74
2024/01/23 11:35:11;;;;;;;1999.90;999.90;;;14.00;99.90;;;;;;5038515;28;20123;-76
2024/01/23 11:37:55;;;;;;;1999.90;999.90;;;14.00;99.90;;;;;;5071743;28;20036;-76
2024/01/23 11:40:27;;;;;;;1999.90;999.90;;;14.00;99.90;;;;;;5074670;28;20589;-74
2024/01/23 11:42:54;;;;;;;1999.90;999.90;;;14.00;99.90;;;;;;5086841;28;20039;-76
2024/01/23 11:45:21;;;;;;;1999.90;999.90;;;14.10;99.90;;;;;;5074247;28;20099;-74
2024/01/23 11:47:48;;;;;;;1999.90;999.90;;;14.10;99.90;;;;;;5074594;28;20445;-74
2024/01/23 11:50:15;;;;;;;1999.90;999.90;;;14.00;99.90;;;;;;5074857;28;20024;-76
2024/01/23 11:52:48;;;;;;;1999.90;999.90;;;14.00;99.90;;;;;;5082222;28;20546;-76
2024/01/23 11:55:14;;;;;;;1999.90;999.90;;;14.00;99.90;;;;;;5083383;28;20043;-74